Time;durP1;ratioP1;P1;durP2;ratioP2;P2;SDS_P1;SDS_P2;PMS_P1;PMS_P2;Temp;Humidity;BMP_temperature;BMP_pressure;BME280_temperature;BME280_humidity;BME280_pressure;Samples;Min_cycle;Max_cycle;Signal;HPM_P1;HPM_P2
2022/10/17 00:02:43;;;;;;;;;;;;;;;21.53;60.09;96282.03;10480869;28;2034;-49
2022/10/17 00:07:45;;;;;;;;;;;;;;;21.51;60.27;96277.03;10486198;28;2143;-49
2022/10/17 00:12:45;;;;;;;;;;;;;;;21.52;60.18;96275.97;10477137;28;1903;-49
2022/10/17 00:17:45;;;;;;;;;;;;;;;21.52;59.89;96280.44;10488748;28;2010;-45
2022/10/17 00:22:45;;;;;;;;;;;;;;;21.52;60.13;96277.81;10486098;28;1891;-50
2022/10/17 00:27:46;;;;;;;;;;;;;;;21.52;59.99;96280.44;10482305;28;2064;-49
2022/10/17 00:32:46;;;;;;;;;;;;;;;21.51;59.88;96289.44;10488132;28;2030;-45
2022/10/17 00:37:47;;;;;;;;;;;;;;;21.50;59.96;96280.72;10484706;28;2006;-48
2022/10/17 00:42:50;;;;;;;;;;;;;;;21.51;59.61;96289.44;10482719;28;2064;-49
2022/10/17 00:47:51;;;;;;;;;;;;;;;21.50;59.97;96295.75;10479340;28;2052;-49
2022/10/17 00:52:52;;;;;;;;;;;;;;;21.50;59.65;96301.81;10479118;28;2049;-50
2022/10/17 00:57:52;;;;;;;;;;;;;;;21.49;59.66;96299.44;10479399;28;1972;-50
2022/10/17 01:02:53;;;;;;;;;;;;;;;21.50;60.00;96298.38;10482401;28;1997;-47
2022/10/17 01:07:53;;;;;;;;;;;;;;;21.48;59.48;96298.66;10479812;28;1923;-51
2022/10/17 01:13:10;;;;;;;;;;;;;;;21.48;59.68;96303.13;10461361;28;2042;-48
2022/10/17 01:18:26;;;;;;;;;;;;;;;21.48;59.54;96297.84;10465733;28;2414;-51
2022/10/17 01:23:30;;;;;;;;;;;;;;;21.47;59.16;96298.94;10492389;28;1969;-50
2022/10/17 01:28:35;;;;;;;;;;;;;;;21.47;59.16;96296.28;10488683;28;1958;-51
2022/10/17 01:33:52;;;;;;;;;;;;;;;21.46;59.05;96284.94;10471686;28;2026;-50
2022/10/17 01:38:54;;;;;;;;;;;;;;;21.45;59.62;96285.97;10472770;28;1984;-47
2022/10/17 01:43:54;;;;;;;;;;;;;;;21.44;59.41;96287.06;10472383;28;1933;-48
2022/10/17 01:48:54;;;;;;;;;;;;;;;21.47;59.29;96286.53;10476428;28;2104;-48
2022/10/17 01:54:00;;;;;;;;;;;;;;;21.46;59.17;96290.22;10477369;28;1980;-47
2022/10/17 01:59:05;;;;;;;;;;;;;;;21.44;58.81;96294.97;10474666;28;1898;-49
2022/10/17 02:04:06;;;;;;;;;;;;;;;21.45;59.01;96290.50;10484940;28;2036;-49
2022/10/17 02:09:22;;;;;;;;;;;;;;;21.44;59.18;96284.41;10464076;28;1974;-47
2022/10/17 02:14:32;;;;;;;;;;;;;;;21.44;59.02;96286.25;10491525;28;1935;-48
2022/10/17 02:19:51;;;;;;;;;;;;;;;21.43;58.95;96284.69;10459457;28;2007;-47
2022/10/17 02:24:53;;;;;;;;;;;;;;;21.44;58.70;96284.41;10487721;28;2146;-45
2022/10/17 02:30:04;;;;;;;;;;;;;;;21.43;58.54;96274.13;10474878;28;1923;-49
2022/10/17 02:35:04;;;;;;;;;;;;;;;21.42;58.73;96278.63;10482774;28;1993;-46
2022/10/17 02:40:05;;;;;;;;;;;;;;;21.42;59.04;96285.72;10451793;28;2074;-52
2022/10/17 02:45:06;;;;;;;;;;;;;;;21.42;58.41;96286.53;10486539;28;1990;-49
2022/10/17 02:50:06;;;;;;;;;;;;;;;21.41;58.33;96284.16;10495513;28;2024;-48
2022/10/17 02:55:11;;;;;;;;;;;;;;;21.41;58.60;96284.16;10483165;28;2109;-50
2022/10/17 03:00:12;;;;;;;;;;;;;;;21.41;58.23;96284.16;10475577;28;1973;-51
2022/10/17 03:05:13;;;;;;;;;;;;;;;21.39;58.81;96292.31;10453997;28;1954;-51
2022/10/17 03:10:13;;;;;;;;;;;;;;;21.41;58.57;96287.56;10481947;28;1959;-50
2022/10/17 03:15:14;;;;;;;;;;;;;;;21.41;58.34;96294.72;10491658;28;1943;-48
2022/10/17 03:20:14;;;;;;;;;;;;;;;21.39;58.52;96294.97;10479226;28;1975;-48
2022/10/17 03:25:14;;;;;;;;;;;;;;;21.38;58.57;96288.13;10487199;28;1934;-47
2022/10/17 03:30:15;;;;;;;;;;;;;;;21.39;58.36;96294.19;10483647;28;1991;-47
2022/10/17 03:35:15;;;;;;;;;;;;;;;21.38;58.21;96301.31;10489233;28;2043;-47
2022/10/17 03:40:15;;;;;;;;;;;;;;;21.38;58.42;96306.56;10480358;28;1983;-47
2022/10/17 03:45:16;;;;;;;;;;;;;;;21.39;58.39;96310.00;10497571;28;1891;-50
2022/10/17 03:50:16;;;;;;;;;;;;;;;21.38;58.50;96303.13;10484136;28;1895;-49
2022/10/17 03:55:17;;;;;;;;;;;;;;;21.38;58.03;96308.41;10484437;28;1916;-49
2022/10/17 04:00:17;;;;;;;;;;;;;;;21.37;57.87;96306.84;10484645;28;2030;-47
2022/10/17 04:05:17;;;;;;;;;;;;;;;21.37;58.33;96307.63;10466890;28;1953;-47
2022/10/17 04:10:17;;;;;;;;;;;;;;;21.37;57.85;96306.84;10484179;28;1951;-48
2022/10/17 04:15:18;;;;;;;;;;;;;;;21.37;57.86;96309.47;10479748;28;1934;-48
2022/10/17 04:20:18;;;;;;;;;;;;;;;21.36;57.88;96315.81;10490185;28;2080;-49
2022/10/17 04:25:19;;;;;;;;;;;;;;;21.36;57.28;96318.44;10477463;28;1899;-50
2022/10/17 04:30:19;;;;;;;;;;;;;;;21.36;57.57;96319.25;10468092;28;2033;-46
2022/10/17 04:35:19;;;;;;;;;;;;;;;21.36;57.45;96327.16;10446996;28;2036;-46
2022/10/17 04:40:20;;;;;;;;;;;;;;;21.36;57.54;96331.63;10480947;28;1927;-46
2022/10/17 04:45:20;;;;;;;;;;;;;;;21.36;57.13;96331.63;10480861;28;1998;-46
2022/10/17 04:50:20;;;;;;;;;;;;;;;21.35;57.14;96335.34;10470382;28;1869;-49
2022/10/17 04:55:21;;;;;;;;;;;;;;;21.35;57.09;96340.59;10495134;28;2115;-48
2022/10/17 05:00:22;;;;;;;;;;;;;;;21.33;56.28;96343.47;10500716;28;1973;-47
2022/10/17 05:05:22;;;;;;;;;;;;;;;21.33;56.75;96340.09;10505689;28;1819;-46
2022/10/17 05:10:23;;;;;;;;;;;;;;;21.33;56.51;96348.75;10495984;28;2058;-50
2022/10/17 05:15:23;;;;;;;;;;;;;;;21.33;56.50;96346.13;10488112;28;1985;-49
2022/10/17 05:20:23;;;;;;;;;;;;;;;21.32;56.42;96349.84;10490553;28;1981;-50
2022/10/17 05:25:24;;;;;;;;;;;;;;;21.31;55.69;96350.09;10485024;28;2013;-51
2022/10/17 05:30:25;;;;;;;;;;;;;;;21.32;56.42;96363.00;10472982;28;2116;-51
2022/10/17 05:35:25;;;;;;;;;;;;;;;21.33;56.34;96363.81;10483625;28;1978;-49
2022/10/17 05:40:25;;;;;;;;;;;;;;;21.32;56.05;96372.75;10486228;28;1994;-48
2022/10/17 05:45:26;;;;;;;;;;;;;;;21.33;55.78;96379.63;10489617;28;1951;-47
2022/10/17 05:50:26;;;;;;;;;;;;;;;21.31;56.09;96381.75;10487126;28;1989;-47
2022/10/17 05:55:26;;;;;;;;;;;;;;;21.32;55.68;96393.84;10491061;28;2135;-46
2022/10/17 06:00:26;;;;;;;;;;;;;;;21.32;55.67;96393.84;10489380;28;1980;-47
2022/10/17 06:05:27;;;;;;;;;;;;;;;21.31;55.51;96402.84;10489006;28;1971;-47
2022/10/17 06:10:28;;;;;;;;;;;;;;;21.29;55.64;96405.72;10485141;28;1903;-48
2022/10/17 06:15:28;;;;;;;;;;;;;;;21.30;55.58;96412.59;10490548;28;1859;-49
2022/10/17 06:20:28;;;;;;;;;;;;;;;21.30;56.02;96409.16;10485751;28;1945;-49
2022/10/17 06:25:31;;;;;;;;;;;;;;;21.30;55.93;96406.50;10486333;28;1974;-47
2022/10/17 06:30:32;;;;;;;;;;;;;;;21.28;56.50;96409.41;10485413;28;1876;-48
2022/10/17 06:35:32;;;;;;;;;;;;;;;21.29;56.10;96405.72;10476146;28;1910;-47
2022/10/17 06:40:32;;;;;;;;;;;;;;;21.30;56.25;96411.78;10480394;28;1958;-49
2022/10/17 06:45:32;;;;;;;;;;;;;;;21.30;56.18;96417.88;10475724;28;1902;-47
2022/10/17 06:50:33;;;;;;;;;;;;;;;21.28;56.30;96425.25;10479541;28;1943;-49
2022/10/17 06:55:33;;;;;;;;;;;;;;;21.30;56.16;96424.97;10479987;28;1895;-49
2022/10/17 07:00:34;;;;;;;;;;;;;;;21.29;56.02;96431.31;10481311;28;2092;-47
2022/10/17 07:05:34;;;;;;;;;;;;;;;21.30;56.00;96433.69;10477284;28;1957;-47
2022/10/17 07:10:37;;;;;;;;;;;;;;;21.29;56.50;96434.72;10480086;28;2064;-51
2022/10/17 07:15:37;;;;;;;;;;;;;;;21.29;56.49;96433.97;10482200;28;1863;-48
2022/10/17 07:20:37;;;;;;;;;;;;;;;21.31;56.50;96445.03;10460721;28;1902;-48
2022/10/17 07:25:38;;;;;;;;;;;;;;;21.30;56.53;96454.78;10471181;28;2017;-48
2022/10/17 07:30:38;;;;;;;;;;;;;;;21.30;56.63;96469.81;10475540;28;1962;-51
2022/10/17 07:35:39;;;;;;;;;;;;;;;21.29;56.78;96476.91;10474293;28;1959;-51
2022/10/17 07:40:52;;;;;;;;;;;;;;;21.31;56.79;96487.22;10478125;28;2056;-51
2022/10/17 07:45:52;;;;;;;;;;;;;;;21.31;56.66;96492.50;10474369;28;1958;-48
2022/10/17 07:50:53;;;;;;;;;;;;;;;21.31;56.92;96489.88;10475125;28;1990;-50
2022/10/17 07:55:53;;;;;;;;;;;;;;;21.33;56.77;96485.88;10475628;28;1923;-47
2022/10/17 08:00:53;;;;;;;;;;;;;;;21.34;56.84;96490.13;10473945;28;1955;-49
2022/10/17 08:05:59;;;;;;;;;;;;;;;21.34;56.60;96489.31;10470182;28;1973;-47
2022/10/17 08:11:01;;;;;;;;;;;;;;;21.35;56.64;96498.84;10466252;28;1942;-45
2022/10/17 08:16:01;;;;;;;;;;;;;;;21.36;56.57;96492.50;10472515;28;2017;-46
2022/10/17 08:21:05;;;;;;;;;;;;;;;21.34;57.02;96486.69;10472678;28;2295;-50
2022/10/17 08:26:07;;;;;;;;;;;;;;;21.34;57.02;96487.50;10470545;28;2012;-49
2022/10/17 08:31:11;;;;;;;;;;;;;;;21.34;56.86;96492.75;10455022;28;1948;-48
2022/10/17 08:36:12;;;;;;;;;;;;;;;21.35;56.71;96489.06;10455092;28;2037;-52
2022/10/17 08:41:14;;;;;;;;;;;;;;;21.37;56.90;96491.47;10475975;28;1969;-48
2022/10/17 08:46:15;;;;;;;;;;;;;;;21.39;56.77;96486.72;10453699;28;1957;-48
2022/10/17 08:51:25;;;;;;;;;;;;;;;21.38;56.87;96488.56;10461726;28;1951;-47
2022/10/17 08:56:29;;;;;;;;;;;;;;;21.40;56.79;96497.00;10465345;28;2100;-48
2022/10/17 09:01:38;;;;;;;;;;;;;;;21.43;56.88;96500.97;10456902;28;1994;-47
2022/10/17 09:06:39;;;;;;;;;;;;;;;21.43;56.66;96500.97;10456502;28;1868;-47
2022/10/17 09:11:43;;;;;;;;;;;;;;;21.44;56.99;96491.97;10455155;28;1909;-48
2022/10/17 09:16:46;;;;;;;;;;;;;;;21.45;56.70;96488.31;10480414;28;1988;-47
2022/10/17 09:21:48;;;;;;;;;;;;;;;21.45;56.89;96502.25;10475227;28;1911;-51
2022/10/17 09:26:49;;;;;;;;;;;;;;;21.45;56.84;96499.63;10463257;28;2086;-45
2022/10/17 09:32:02;;;;;;;;;;;;;;;21.47;56.88;96507.31;10459117;28;1927;-47
2022/10/17 09:37:02;;;;;;;;;;;;;;;21.47;56.84;96507.31;10475542;28;1935;-49
2022/10/17 09:42:03;;;;;;;;;;;;;;;21.47;56.78;96507.31;10464487;28;2040;-48
2022/10/17 09:47:22;;;;;;;;;;;;;;;21.47;57.00;96502.03;10466005;28;1947;-49
2022/10/17 09:52:46;;;;;;;;;;;;;;;21.50;56.98;96506.75;10479370;28;2299;-47
2022/10/17 09:57:50;;;;;;;;;;;;;;;21.49;57.12;96502.56;10482007;28;1902;-47
2022/10/17 10:02:50;;;;;;;;;;;;;;;21.50;57.17;96519.94;10482719;28;1838;-47
2022/10/17 10:08:09;;;;;;;;;;;;;;;21.50;56.85;96510.19;10482838;28;1899;-46
2022/10/17 10:13:12;;;;;;;;;;;;;;;21.50;57.12;96518.13;10482373;28;1925;-46
2022/10/17 10:18:25;;;;;;;;;;;;;;;21.53;57.13;96522.09;10481046;28;1898;-51
2022/10/17 10:23:25;;;;;;;;;;;;;;;21.53;57.17;96522.88;10504589;28;1609;-49
2022/10/17 10:28:30;;;;;;;;;;;;;;;21.55;57.15;96519.97;10497225;28;1731;-52
2022/10/17 10:33:30;;;;;;;;;;;;;;;21.55;57.15;96519.97;10462634;28;1949;-47
2022/10/17 10:38:31;;;;;;;;;;;;;;;21.57;57.03;96517.88;10467606;28;2064;-49
2022/10/17 10:43:36;;;;;;;;;;;;;;;21.56;57.06;96508.34;10487343;28;1906;-47
2022/10/17 10:48:36;;;;;;;;;;;;;;;21.56;57.24;96511.78;10462988;28;1903;-45
2022/10/17 10:53:41;;;;;;;;;;;;;;;21.57;57.11;96507.31;10455707;28;2093;-46
2022/10/17 10:58:51;;;;;;;;;;;;;;;21.57;56.88;96510.75;10469422;28;2011;-49
2022/10/17 11:04:04;;;;;;;;;;;;;;;21.58;56.96;96504.41;10477931;28;1978;-45
2022/10/17 11:09:16;;;;;;;;;;;;;;;21.59;57.19;96502.56;10477911;28;2072;-48
2022/10/17 11:14:16;;;;;;;;;;;;;;;21.61;56.99;96500.47;10478480;28;1946;-52
2022/10/17 11:19:35;;;;;;;;;;;;;;;21.62;57.05;96494.91;10478202;28;1974;-51
2022/10/17 11:24:56;;;;;;;;;;;;;;;21.65;56.97;96498.88;10477303;28;1976;-48
2022/10/17 11:29:56;;;;;;;;;;;;;;;21.65;57.32;96488.34;10435342;28;1982;-48
2022/10/17 11:34:59;;;;;;;;;;;;;;;21.67;57.19;96494.13;10463679;28;1936;-47
2022/10/17 11:40:13;;;;;;;;;;;;;;;21.67;57.61;96492.28;10461276;28;1914;-47
2022/10/17 11:45:14;;;;;;;;;;;;;;;21.69;57.30;96494.66;10459989;28;1978;-46
2022/10/17 11:50:17;;;;;;;;;;;;;;;21.70;57.59;96501.53;10462609;28;2358;-47
2022/10/17 11:55:21;;;;;;;;;;;;;;;21.74;57.61;96497.31;10473249;28;1954;-45
2022/10/17 12:00:40;;;;;;;;;;;;;;;21.74;57.44;96495.44;10482295;28;1990;-47
2022/10/17 12:05:59;;;;;;;;;;;;;;;21.74;57.21;96490.16;10475597;28;1968;-45
2022/10/17 12:11:04;;;;;;;;;;;;;;;21.75;57.63;96489.13;10480513;28;1974;-46
2022/10/17 12:16:19;;;;;;;;;;;;;;;21.77;57.28;96483.59;10469587;28;2040;-48
2022/10/17 12:21:19;;;;;;;;;;;;;;;21.79;57.33;96484.13;10474429;28;2115;-49
2022/10/17 12:26:29;;;;;;;;;;;;;;;21.82;57.78;96486.28;10467536;28;2013;-46
2022/10/17 12:31:29;;;;;;;;;;;;;;;21.83;57.59;96485.19;10452525;28;2030;-48
2022/10/17 12:36:29;;;;;;;;;;;;;;;21.86;57.50;96474.13;10460267;28;2057;-47
2022/10/17 12:41:39;;;;;;;;;;;;;;;21.94;57.31;96470.97;10478508;28;1871;-45
2022/10/17 12:46:40;;;;;;;;;;;;;;;22.08;56.96;96471.19;10473417;28;2258;-48
2022/10/17 12:51:59;;;;;;;;;;;;;;;22.58;55.82;96469.31;10470723;28;1951;-52
2022/10/17 12:56:59;;;;;;;;;;;;;;;;;;10472834;28;1950;-45
2022/10/17 13:02:00;;;;;;;;;;;;;;;23.95;52.52;96472.00;10473877;28;2037;-50
2022/10/17 13:07:00;;;;;;;;;;;;;;;24.02;45.33;96470.63;10461638;28;1976;-45
2022/10/17 13:12:02;;;;;;;;;;;;;;;24.16;42.47;96468.94;10476252;28;2009;-47
2022/10/17 13:17:03;;;;;;;;;;;;;;;24.11;42.88;96466.31;10446484;28;2059;-46
2022/10/17 13:22:10;;;;;;;;;;;;;;;24.10;44.75;96463.97;10483601;28;2017;-47
2022/10/17 13:27:26;;;;;;;;;;;;;;;25.43;42.11;96463.78;10466323;28;1964;-46
2022/10/17 13:32:34;;;;;;;;;;;;;;;26.46;39.04;96452.03;10470937;28;1986;-49
2022/10/17 13:37:35;;;;;;;;;;;;;;;27.23;36.59;96452.91;10479359;28;1989;-49
2022/10/17 13:42:36;;;;;;;;;;;;;;;26.68;37.61;96460.13;10487165;28;1939;-51
2022/10/17 13:47:36;;;;;;;;;;;;;;;25.33;37.84;96458.59;10484398;28;2254;-47
2022/10/17 13:52:37;;;;;;;;;;;;;;;24.45;40.83;96457.53;10481490;28;2090;-45
2022/10/17 13:57:43;;;;;;;;;;;;;;;23.83;42.34;96461.78;10476972;28;1982;-47
2022/10/17 14:02:43;;;;;;;;;;;;;;;23.40;42.24;96459.97;10464646;28;1974;-47
2022/10/17 14:07:43;;;;;;;;;;;;;;;23.25;43.72;96454.72;10452819;28;1954;-48
2022/10/17 14:12:44;;;;;;;;;;;;;;;23.08;43.42;96465.66;10473523;28;2032;-48
2022/10/17 14:17:44;;;;;;;;;;;;;;;22.88;43.41;96472.88;10481806;28;2120;-47
2022/10/17 14:22:44;;;;;;;;;;;;;;;22.75;42.59;96470.84;10483351;28;1927;-47
2022/10/17 14:27:56;;;;;;;;;;;;;;;22.63;43.19;96474.56;10490099;28;2357;-46
2022/10/17 14:32:57;;;;;;;;;;;;;;;22.55;42.62;96474.28;10471838;28;1520;-48
2022/10/17 14:37:59;;;;;;;;;;;;;;;22.48;42.69;96476.44;10456411;28;1906;-46
2022/10/17 14:43:02;;;;;;;;;;;;;;;22.41;42.26;96482.00;10464238;28;1503;-43
2022/10/17 14:48:15;;;;;;;;;;;;;;;22.40;42.02;96485.69;10495073;28;2297;-47
2022/10/17 14:53:15;;;;;;;;;;;;;;;22.34;42.89;96484.09;10461741;28;1955;-48
2022/10/17 14:58:16;;;;;;;;;;;;;;;22.30;43.06;96496.25;10486206;28;2047;-48
2022/10/17 15:03:18;;;;;;;;;;;;;;;22.24;43.72;96492.03;10481320;28;1986;-46
2022/10/17 15:08:18;;;;;;;;;;;;;;;22.22;44.67;96494.16;10478285;28;1954;-46
2022/10/17 15:13:19;;;;;;;;;;;;;;;22.20;45.18;96501.56;10441647;28;1951;-51
2022/10/17 15:18:20;;;;;;;;;;;;;;;22.16;45.42;96497.88;10464513;28;1905;-49
2022/10/17 15:23:20;;;;;;;;;;;;;;;22.13;45.95;96506.34;10477397;28;1895;-46
2022/10/17 15:28:20;;;;;;;;;;;;;;;22.11;46.01;96505.00;10473946;28;1950;-48
2022/10/17 15:33:21;;;;;;;;;;;;;;;22.09;46.29;96512.41;10475994;28;2021;-49
2022/10/17 15:38:21;;;;;;;;;;;;;;;22.10;46.74;96517.41;10476063;28;2089;-48
2022/10/17 15:43:21;;;;;;;;;;;;;;;22.09;47.15;96518.47;10474987;28;2008;-49
2022/10/17 15:48:24;;;;;;;;;;;;;;;22.08;47.48;96519.53;10476513;28;2243;-49
2022/10/17 15:53:24;;;;;;;;;;;;;;;22.08;47.76;96524.81;10469148;28;1968;-45
2022/10/17 15:58:27;;;;;;;;;;;;;;;22.08;47.93;96524.00;10474001;28;2022;-45
2022/10/17 16:03:29;;;;;;;;;;;;;;;22.05;48.35;96532.47;10458357;28;1978;-50
2022/10/17 16:08:29;;;;;;;;;;;;;;;22.07;48.13;96538.28;10483166;28;1880;-48
2022/10/17 16:13:29;;;;;;;;;;;;;;;22.03;48.71;96538.00;10486916;28;2237;-47
2022/10/17 16:18:30;;;;;;;;;;;;;;;22.02;48.83;96539.06;10471636;28;1959;-48
2022/10/17 16:23:30;;;;;;;;;;;;;;;22.03;49.07;96548.56;10489856;28;1989;-49
2022/10/17 16:28:31;;;;;;;;;;;;;;;22.02;49.43;96548.81;10485257;28;2092;-45
2022/10/17 16:33:31;;;;;;;;;;;;;;;22.01;49.44;96552.53;10487462;28;1981;-50
2022/10/17 16:38:31;;;;;;;;;;;;;;;22.01;49.60;96555.19;10486407;28;1974;-43
2022/10/17 16:43:35;;;;;;;;;;;;;;;21.99;49.80;96562.56;10486156;28;2014;-47
2022/10/17 16:48:35;;;;;;;;;;;;;;;21.97;49.91;96560.16;10491410;28;2066;-47
2022/10/17 16:53:42;;;;;;;;;;;;;;;21.96;50.03;96563.88;10476686;28;1997;-49
2022/10/17 16:58:43;;;;;;;;;;;;;;;21.96;50.08;96571.00;10490494;28;1963;-47
2022/10/17 17:03:43;;;;;;;;;;;;;;;21.98;49.91;96577.59;10472989;28;2164;-49
2022/10/17 17:08:44;;;;;;;;;;;;;;;21.99;50.04;96581.81;10491831;28;2014;-48
2022/10/17 17:13:45;;;;;;;;;;;;;;;22.01;50.22;96584.97;10473563;28;1957;-47
2022/10/17 17:18:45;;;;;;;;;;;;;;;22.03;50.39;96590.78;10499176;28;1963;-47
2022/10/17 17:23:45;;;;;;;;;;;;;;;22.06;50.36;96590.28;10494090;28;2028;-48
2022/10/17 17:28:46;;;;;;;;;;;;;;;22.05;50.20;96593.97;10474944;28;1950;-46
2022/10/17 17:33:46;;;;;;;;;;;;;;;22.06;50.35;96605.31;10487903;28;2063;-49
2022/10/17 17:38:47;;;;;;;;;;;;;;;22.08;50.65;96614.56;10494415;28;2000;-48
2022/10/17 17:43:47;;;;;;;;;;;;;;;22.07;50.42;96614.84;10488476;28;2003;-46
2022/10/17 17:48:48;;;;;;;;;;;;;;;22.06;50.49;96619.34;10493060;28;1996;-47
2022/10/17 17:53:48;;;;;;;;;;;;;;;22.07;50.94;96623.53;10454711;28;2067;-49
2022/10/17 17:58:53;;;;;;;;;;;;;;;22.07;51.04;96620.13;10488247;28;1971;-51
2022/10/17 18:03:53;;;;;;;;;;;;;;;22.08;50.85;96625.13;10489106;28;1964;-50
2022/10/17 18:08:54;;;;;;;;;;;;;;;22.08;50.86;96619.84;10486574;28;2019;-49
2022/10/17 18:13:56;;;;;;;;;;;;;;;22.08;51.11;96625.13;10485742;28;2199;-47
2022/10/17 18:18:56;;;;;;;;;;;;;;;22.08;51.16;96621.69;10486126;28;2312;-45
2022/10/17 18:23:58;;;;;;;;;;;;;;;22.07;50.96;96631.47;10487254;28;2060;-47
2022/10/17 18:28:59;;;;;;;;;;;;;;;22.06;51.15;96627.25;10489086;28;2037;-48
2022/10/17 18:34:00;;;;;;;;;;;;;;;22.08;51.14;96624.34;10473454;28;2056;-51
2022/10/17 18:39:00;;;;;;;;;;;;;;;22.08;51.26;96626.97;10485112;28;1976;-48
2022/10/17 18:44:01;;;;;;;;;;;;;;;22.19;51.05;96633.88;10486609;28;2131;-48
2022/10/17 18:49:02;;;;;;;;;;;;;;;22.24;51.14;96629.38;10492740;28;2235;-46
2022/10/17 18:54:02;;;;;;;;;;;;;;;22.20;51.20;96633.59;10477936;28;2104;-48
2022/10/17 18:59:03;;;;;;;;;;;;;;;22.21;51.37;96629.91;10482988;28;1994;-50
2022/10/17 19:04:03;;;;;;;;;;;;;;;22.19;51.30;96632.03;10482815;28;2052;-50
2022/10/17 19:09:04;;;;;;;;;;;;;;;22.18;51.65;96627.00;10476649;28;2011;-47
2022/10/17 19:14:11;;;;;;;;;;;;;;;22.17;51.69;96634.16;10478617;28;2232;-49
2022/10/17 19:19:21;;;;;;;;;;;;;;;22.17;51.76;96636.00;10471704;28;2281;-50
2022/10/17 19:24:23;;;;;;;;;;;;;;;22.13;52.09;96635.72;10482214;28;2131;-48
2022/10/17 19:29:24;;;;;;;;;;;;;;;22.13;52.06;96638.38;10463977;28;2013;-51
2022/10/17 19:34:24;;;;;;;;;;;;;;;22.13;52.02;96640.19;10491929;28;2063;-48
2022/10/17 19:39:25;;;;;;;;;;;;;;;22.10;52.18;96630.94;10481414;28;2096;-47
2022/10/17 19:44:25;;;;;;;;;;;;;;;22.10;52.01;96635.44;10475638;28;1922;-46
2022/10/17 19:49:25;;;;;;;;;;;;;;;22.10;52.33;96627.50;10494558;28;1103;-45
2022/10/17 19:54:26;;;;;;;;;;;;;;;22.08;52.28;96630.41;10488578;28;1629;-46
2022/10/17 19:59:26;;;;;;;;;;;;;;;22.09;52.48;96636.50;10490671;28;1976;-48
2022/10/17 20:04:26;;;;;;;;;;;;;;;22.08;52.50;96642.81;10491285;28;1427;-48
2022/10/17 20:09:27;;;;;;;;;;;;;;;22.08;52.65;96643.63;10462496;28;1832;-51
2022/10/17 20:14:27;;;;;;;;;;;;;;;22.07;52.68;96649.94;10490925;28;1435;-51
2022/10/17 20:19:27;;;;;;;;;;;;;;;22.10;52.21;96648.63;10491317;28;1886;-52
2022/10/17 20:24:27;;;;;;;;;;;;;;;22.09;50.67;96647.84;10487919;28;1689;-50
2022/10/17 20:29:28;;;;;;;;;;;;;;;22.04;51.55;96654.97;10489498;28;1128;-46
2022/10/17 20:34:33;;;;;;;;;;;;;;;21.96;52.63;96653.63;10489499;28;1455;-49
2022/10/17 20:39:33;;;;;;;;;;;;;;;21.97;52.79;96657.06;10490764;28;1897;-47
2022/10/17 20:44:34;;;;;;;;;;;;;;;21.96;53.03;96666.03;10489775;28;1452;-50
2022/10/17 20:49:34;;;;;;;;;;;;;;;21.95;53.37;96659.94;10488382;28;1761;-49
2022/10/17 20:54:35;;;;;;;;;;;;;;;21.95;53.63;96662.59;10489228;28;1432;-51
2022/10/17 20:59:36;;;;;;;;;;;;;;;21.95;53.87;96652.03;10489933;28;1965;-51
2022/10/17 21:04:36;;;;;;;;;;;;;;;21.94;54.12;96655.75;10490367;28;1369;-51
2022/10/17 21:09:37;;;;;;;;;;;;;;;21.94;54.10;96654.94;10473218;28;1222;-49
2022/10/17 21:14:37;;;;;;;;;;;;;;;21.94;54.15;96666.31;10489952;28;1421;-50
2022/10/17 21:19:37;;;;;;;;;;;;;;;21.92;54.15;96649.94;10491597;28;1907;-50
2022/10/17 21:24:38;;;;;;;;;;;;;;;21.92;54.24;96652.56;10483541;28;1808;-50
2022/10/17 21:29:42;;;;;;;;;;;;;;;21.92;54.19;96654.41;10474080;28;1198;-50
2022/10/17 21:34:42;;;;;;;;;;;;;;;21.91;53.95;96658.88;10490376;28;1641;-51
2022/10/17 21:39:42;;;;;;;;;;;;;;;21.90;53.88;96656.50;10501071;28;1905;-50
2022/10/17 21:44:43;;;;;;;;;;;;;;;21.89;54.15;96645.16;10495341;28;1656;-50
2022/10/17 21:49:43;;;;;;;;;;;;;;;21.89;54.18;96653.06;10500847;28;1669;-51
2022/10/17 21:54:44;;;;;;;;;;;;;;;21.88;54.23;96639.06;10480053;28;1626;-51
2022/10/17 21:59:44;;;;;;;;;;;;;;;21.88;53.88;96643.59;10499874;28;1906;-51
2022/10/17 22:04:45;;;;;;;;;;;;;;;21.88;54.08;96640.94;10497332;28;1653;-50
2022/10/17 22:09:45;;;;;;;;;;;;;;;21.88;53.98;96640.94;10499503;28;1168;-50
2022/10/17 22:14:46;;;;;;;;;;;;;;;21.87;54.25;96644.63;10496118;28;1583;-49
2022/10/17 22:19:47;;;;;;;;;;;;;;;21.86;54.21;96638.53;10493041;28;1956;-49
2022/10/17 22:24:47;;;;;;;;;;;;;;;21.86;54.24;96640.41;10497137;28;1487;-49
2022/10/17 22:29:48;;;;;;;;;;;;;;;21.86;54.18;96645.69;10499434;28;1090;-50
2022/10/17 22:34:48;;;;;;;;;;;;;;;21.84;54.25;96630.09;10498437;28;1507;-51
2022/10/17 22:39:49;;;;;;;;;;;;;;;21.84;54.11;96637.25;10499375;28;1918;-48
2022/10/17 22:44:49;;;;;;;;;;;;;;;21.84;54.11;96639.88;10473596;28;1653;-49
2022/10/17 22:49:50;;;;;;;;;;;;;;;21.84;54.13;96653.06;10472345;28;1845;-49
2022/10/17 22:54:50;;;;;;;;;;;;;;;21.84;53.88;96653.06;10496229;28;1638;-49
2022/10/17 22:59:51;;;;;;;;;;;;;;;21.83;54.15;96652.28;10496708;28;1906;-51
2022/10/17 23:04:53;;;;;;;;;;;;;;;21.83;54.06;96644.34;10489558;28;1689;-49
2022/10/17 23:09:53;;;;;;;;;;;;;;;21.82;54.01;96650.69;10496756;28;1137;-50
2022/10/17 23:14:54;;;;;;;;;;;;;;;21.82;54.10;96639.34;10476504;28;1798;-50
2022/10/17 23:19:54;;;;;;;;;;;;;;;21.82;54.09;96645.41;10478271;28;1894;-53
2022/10/17 23:24:54;;;;;;;;;;;;;;;21.81;54.05;96643.81;10488659;28;1468;-51
2022/10/17 23:29:55;;;;;;;;;;;;;;;21.81;53.89;96648.28;10497777;28;1094;-49
2022/10/17 23:34:56;;;;;;;;;;;;;;;21.81;54.00;96645.63;10490221;28;1604;-50
2022/10/17 23:39:57;;;;;;;;;;;;;;;21.81;53.81;96640.34;10498690;28;1909;-50
2022/10/17 23:44:57;;;;;;;;;;;;;;;21.80;54.02;96644.84;10494855;28;1574;-50
2022/10/17 23:49:58;;;;;;;;;;;;;;;21.79;53.79;96632.69;10494366;28;1692;-50
2022/10/17 23:54:59;;;;;;;;;;;;;;;21.80;53.77;96633.50;10492573;28;1464;-52
